الصفحة الرئيسية
METAR-TAF:

METAR-TAF

مطار :

لونغمونت, كولورادو, الولايات المتحدة

دائرة عرض: 40-09-51N, خط طول: 105-09-49W, ارتفاع: 1541 متر

مراقبة الطقس الحالي

تاريخ ووقت الإصدار 11 دقيقة قبل الساعة 18:55UTC
ريح 5 عقدة من الشرق
درجة الحرارة 27°درجة مئوية
الرطوبة 42%
ضغط 1020 hPa
الرؤية: 11.3 كم
سماء صافية

METAR: KLMO 141855Z AUTO 08005KT 7SM CLR 27/13 A3013 RMK AO2 T02670129

زمن: 13:06 (19:06 UTC)


TAF: مفقودة

أرصاد الطقس والتوقعات من أكثر من 4000 مطار (تقارير الطقس للمطار METAR والتنبؤ بالطقس بالمطارTAF).

المحطات المتاحة هي النقط الصفراء والحمراء على الخريطة.

حرك المؤشر فوق النقطة لمعرفة اسم المحطة.

ثم انقر لمعرفة أرصاد وتوقعات الطقس.

لتغيير الخارطة: اضغط على الأزرار الخضراء مع رمز الصليب الأسود للتكبير. على الزر الأخضر مع شرطة للتصغير، أو على الأسهم الخضراء للخرائط المجاورة.


METAR-TAF: